Time;durP1;ratioP1;P1;durP2;ratioP2;P2;SDS_P1;SDS_P2;PMS_P1;PMS_P2;Temp;Humidity;BMP_temperature;BMP_pressure;BME280_temperature;BME280_humidity;BME280_pressure;Samples;Min_cycle;Max_cycle;Signal;HPM_P1;HPM_P2
2021/10/30 00:01:06;;;;;;;;;;;10.60;99.90;;;;;;5115865;27;19939;-74
2021/10/30 00:03:34;;;;;;;;;;;10.50;99.90;;;;;;5123482;27;19934;-74
2021/10/30 00:06:01;;;;;;;;;;;10.40;99.90;;;;;;5123317;27;19929;-74
2021/10/30 00:08:29;;;;;;;;;;;10.40;99.90;;;;;;5123724;27;19935;-74
2021/10/30 00:10:55;;;;;;;;;;;10.50;99.90;;;;;;5120128;27;20359;-74
2021/10/30 00:13:22;;;;;;;;;;;10.40;99.90;;;;;;5122016;27;19942;-74
2021/10/30 00:15:49;;;;;;;;;;;10.40;99.90;;;;;;5116589;27;19924;-74
2021/10/30 00:18:15;;;;;;;;;;;10.40;99.90;;;;;;5116302;27;19923;-74
2021/10/30 00:20:43;;;;;;;;;;;10.40;99.90;;;;;;5124295;27;20035;-75
2021/10/30 00:23:10;;;;;;;;;;;10.30;99.90;;;;;;5121105;27;20011;-75
2021/10/30 00:25:37;;;;;;;;;;;10.20;99.90;;;;;;5124085;27;19930;-75
2021/10/30 00:28:03;;;;;;;;;;;10.20;99.90;;;;;;5120157;27;20335;-75
2021/10/30 00:30:30;;;;;;;;;;;10.20;99.90;;;;;;5121384;27;19951;-78
2021/10/30 00:32:56;;;;;;;;;;;10.20;99.90;;;;;;5119716;27;19929;-76
2021/10/30 00:35:23;;;;;;;;;;;10.30;99.90;;;;;;5121647;27;20034;-75
2021/10/30 00:37:51;;;;;;;;;;;10.40;99.90;;;;;;5123180;27;19924;-74
2021/10/30 00:40:18;;;;;;;;;;;10.50;99.90;;;;;;5115130;27;19931;-76
2021/10/30 00:42:44;;;;;;;;;;;10.60;99.90;;;;;;5125121;27;19929;-76
2021/10/30 00:45:11;;;;;;;;;;;10.60;99.90;;;;;;5120449;27;19923;-76
2021/10/30 00:47:38;;;;;;;;;;;10.70;99.90;;;;;;5115484;27;19934;-76
2021/10/30 00:50:05;;;;;;;;;;;10.70;99.90;;;;;;5116527;27;19930;-75
2021/10/30 00:52:32;;;;;;;;;;;10.70;99.90;;;;;;5115228;27;19923;-77
2021/10/30 00:55:01;;;;;;;;;;;10.70;99.90;;;;;;5118413;27;19930;-76
2021/10/30 00:57:28;;;;;;;;;;;10.70;99.90;;;;;;5128218;27;19927;-77
2021/10/30 00:59:55;;;;;;;;;;;10.70;99.90;;;;;;5126129;27;19937;-76
2021/10/30 01:02:22;;;;;;;;;;;10.60;99.90;;;;;;5124075;27;20010;-75
2021/10/30 01:04:48;;;;;;;;;;;10.60;99.90;;;;;;5116570;27;20408;-75
2021/10/30 01:07:15;;;;;;;;;;;10.60;99.90;;;;;;5119639;27;20381;-75
2021/10/30 01:09:42;;;;;;;;;;;10.70;99.90;;;;;;5117572;27;19923;-74
2021/10/30 01:12:10;;;;;;;;;;;10.80;99.90;;;;;;5117619;27;19927;-74
2021/10/30 01:14:37;;;;;;;;;;;10.80;99.90;;;;;;5124363;27;19954;-75
2021/10/30 01:17:05;;;;;;;;;;;10.80;99.90;;;;;;5116602;27;20022;-77
2021/10/30 01:19:32;;;;;;;;;;;10.80;99.90;;;;;;5120762;27;19955;-75
2021/10/30 01:22:01;;;;;;;;;;;10.80;99.90;;;;;;5120810;27;19935;-76
2021/10/30 01:24:28;;;;;;;;;;;10.80;99.90;;;;;;5124559;27;19930;-76
2021/10/30 01:26:54;;;;;;;;;;;10.80;99.90;;;;;;5124448;27;19924;-76
2021/10/30 01:29:22;;;;;;;;;;;10.80;99.90;;;;;;5129586;27;20646;-76
2021/10/30 01:31:49;;;;;;;;;;;10.90;99.90;;;;;;5115706;27;20349;-75
2021/10/30 01:34:16;;;;;;;;;;;10.90;99.90;;;;;;5121853;27;19924;-75
2021/10/30 01:36:43;;;;;;;;;;;10.90;99.90;;;;;;5115532;27;19924;-77
2021/10/30 01:39:13;;;;;;;;;;;11.00;99.90;;;;;;5120182;27;20660;-76
2021/10/30 01:41:40;;;;;;;;;;;10.90;99.90;;;;;;5126048;27;19950;-76
2021/10/30 01:44:06;;;;;;;;;;;11.00;99.90;;;;;;5119574;27;19931;-77
2021/10/30 01:46:33;;;;;;;;;;;10.90;99.90;;;;;;5118690;27;19937;-76
2021/10/30 01:49:00;;;;;;;;;;;10.90;99.90;;;;;;5120324;27;19923;-76
2021/10/30 01:51:27;;;;;;;;;;;10.90;99.90;;;;;;5123591;27;19924;-77
2021/10/30 01:53:55;;;;;;;;;;;10.90;99.90;;;;;;5114918;27;20397;-77
2021/10/30 01:56:23;;;;;;;;;;;10.90;99.90;;;;;;5116622;27;19931;-75
2021/10/30 01:58:50;;;;;;;;;;;11.00;99.90;;;;;;5116389;27;19928;-76
2021/10/30 02:01:16;;;;;;;;;;;11.00;99.90;;;;;;5116380;27;19930;-76
2021/10/30 02:03:43;;;;;;;;;;;11.00;99.90;;;;;;5122261;27;19928;-77
2021/10/30 02:06:10;;;;;;;;;;;11.00;99.90;;;;;;5119050;27;19931;-77
2021/10/30 02:08:37;;;;;;;;;;;11.10;99.90;;;;;;5115982;27;19924;-76
2021/10/30 02:11:04;;;;;;;;;;;11.10;99.90;;;;;;5120651;27;19930;-76
2021/10/30 02:13:32;;;;;;;;;;;11.10;99.90;;;;;;5122302;27;19924;-76
2021/10/30 02:15:59;;;;;;;;;;;11.00;99.90;;;;;;5114420;27;19934;-76
2021/10/30 02:18:25;;;;;;;;;;;11.00;99.90;;;;;;5119043;27;19938;-76
2021/10/30 02:20:52;;;;;;;;;;;11.00;99.90;;;;;;5117875;27;19923;-75
2021/10/30 02:23:19;;;;;;;;;;;11.10;99.90;;;;;;5117146;27;19928;-75
2021/10/30 02:25:46;;;;;;;;;;;11.20;99.90;;;;;;5126650;27;19968;-76
2021/10/30 02:28:13;;;;;;;;;;;11.20;99.90;;;;;;5118446;27;19923;-76
2021/10/30 02:30:41;;;;;;;;;;;11.30;99.90;;;;;;5116246;27;20023;-76
2021/10/30 02:33:08;;;;;;;;;;;11.30;99.90;;;;;;5118821;27;19930;-76
2021/10/30 02:35:34;;;;;;;;;;;11.30;99.90;;;;;;5118042;27;20022;-76
2021/10/30 02:38:01;;;;;;;;;;;11.30;99.90;;;;;;5119440;27;19923;-76
2021/10/30 02:40:27;;;;;;;;;;;11.30;99.90;;;;;;5114855;27;19931;-76
2021/10/30 02:42:54;;;;;;;;;;;11.30;99.90;;;;;;5122682;27;19927;-76
2021/10/30 02:45:21;;;;;;;;;;;11.30;99.90;;;;;;5116546;27;19927;-77
2021/10/30 02:47:49;;;;;;;;;;;11.20;99.90;;;;;;5112926;27;19924;-77
2021/10/30 02:50:16;;;;;;;;;;;11.20;99.90;;;;;;5127270;27;20336;-77
2021/10/30 02:52:43;;;;;;;;;;;11.20;99.90;;;;;;5113964;27;19924;-77
2021/10/30 02:55:10;;;;;;;;;;;11.30;99.90;;;;;;5120824;27;19927;-77
2021/10/30 02:57:37;;;;;;;;;;;11.30;99.90;;;;;;5120646;27;19930;-77
2021/10/30 03:00:04;;;;;;;;;;;11.40;99.90;;;;;;5122793;27;19931;-77
2021/10/30 03:02:31;;;;;;;;;;;11.40;99.90;;;;;;5118444;27;19923;-77
2021/10/30 03:04:59;;;;;;;;;;;11.40;99.90;;;;;;5116639;27;20018;-76
2021/10/30 03:07:26;;;;;;;;;;;11.40;99.90;;;;;;5122266;27;19923;-76
2021/10/30 03:09:52;;;;;;;;;;;11.40;99.90;;;;;;5112251;27;19924;-76
2021/10/30 03:12:19;;;;;;;;;;;11.40;99.90;;;;;;5122513;27;19930;-76
2021/10/30 03:14:46;;;;;;;;;;;11.40;99.90;;;;;;5115234;27;19924;-77
2021/10/30 03:17:12;;;;;;;;;;;11.40;99.90;;;;;;5115226;27;20010;-77
2021/10/30 03:19:39;;;;;;;;;;;11.50;99.90;;;;;;5111513;28;19927;-77
2021/10/30 03:22:08;;;;;;;;;;;11.50;99.90;;;;;;5113165;28;20297;-76
2021/10/30 03:24:35;;;;;;;;;;;11.50;99.90;;;;;;5114798;27;20022;-76
2021/10/30 03:27:02;;;;;;;;;;;11.50;99.90;;;;;;5116947;27;20477;-77
2021/10/30 03:29:29;;;;;;;;;;;11.50;99.90;;;;;;5113990;27;19927;-77
2021/10/30 03:31:56;;;;;;;;;;;11.60;99.90;;;;;;5123954;28;19924;-77
2021/10/30 03:34:22;;;;;;;;;;;11.50;99.90;;;;;;5126092;27;19924;-77
2021/10/30 03:36:49;;;;;;;;;;;11.60;99.90;;;;;;5122745;28;19931;-76
2021/10/30 03:39:17;;;;;;;;;;;11.50;99.90;;;;;;5111007;28;19923;-77
2021/10/30 03:41:43;;;;;;;;;;;11.50;99.90;;;;;;5111599;28;19931;-77
2021/10/30 03:44:10;;;;;;;;;;;11.60;99.90;;;;;;5121321;28;19930;-76
2021/10/30 03:46:37;;;;;;;;;;;11.60;99.90;;;;;;5121996;28;19938;-77
2021/10/30 03:49:04;;;;;;;;;;;11.60;99.90;;;;;;5122869;28;20385;-76
2021/10/30 03:51:30;;;;;;;;;;;11.60;99.90;;;;;;5118237;28;19923;-76
2021/10/30 03:53:57;;;;;;;;;;;11.50;99.90;;;;;;5120458;28;20029;-77
2021/10/30 03:56:25;;;;;;;;;;;11.50;99.90;;;;;;5115536;27;20275;-75
2021/10/30 03:58:51;;;;;;;;;;;11.60;99.90;;;;;;5114611;28;19938;-75
2021/10/30 04:01:18;;;;;;;;;;;11.50;99.90;;;;;;5120221;28;20568;-76
2021/10/30 04:03:45;;;;;;;;;;;11.50;99.90;;;;;;5112666;28;19924;-75
2021/10/30 04:06:11;;;;;;;;;;;11.50;99.90;;;;;;5124521;28;20290;-76
2021/10/30 04:08:38;;;;;;;;;;;11.50;99.90;;;;;;5117710;28;19924;-75
2021/10/30 04:11:05;;;;;;;;;;;11.50;99.90;;;;;;5117000;28;19969;-76
2021/10/30 04:13:33;;;;;;;;;;;11.60;99.90;;;;;;5121140;28;20006;-76
2021/10/30 04:15:59;;;;;;;;;;;11.60;99.90;;;;;;5117696;28;20356;-76
2021/10/30 04:18:26;;;;;;;;;;;11.60;99.90;;;;;;5110925;28;19931;-76
2021/10/30 04:20:53;;;;;;;;;;;11.60;99.90;;;;;;5113783;27;20018;-77
2021/10/30 04:23:19;;;;;;;;;;;11.70;99.90;;;;;;5114056;28;19923;-77
2021/10/30 04:25:46;;;;;;;;;;;11.70;99.90;;;;;;5114973;27;20445;-77
2021/10/30 04:28:13;;;;;;;;;;;11.70;99.90;;;;;;5118109;27;19930;-78
2021/10/30 04:30:41;;;;;;;;;;;11.70;99.90;;;;;;5120111;28;20343;-84
2021/10/30 04:33:13;;;;;;;;;;;11.80;99.90;;;;;;5120863;28;19923;-84
2021/10/30 04:35:41;;;;;;;;;;;11.80;99.90;;;;;;5117500;28;19932;-82
2021/10/30 04:38:08;;;;;;;;;;;11.80;99.90;;;;;;5134640;27;19923;-82
2021/10/30 04:40:34;;;;;;;;;;;11.80;99.90;;;;;;5125195;28;19930;-77
2021/10/30 04:43:01;;;;;;;;;;;11.80;99.90;;;;;;5124663;27;20385;-77
2021/10/30 04:45:28;;;;;;;;;;;11.80;99.90;;;;;;5127437;27;20317;-76
2021/10/30 04:47:56;;;;;;;;;;;11.80;99.90;;;;;;5117005;27;20339;-75
2021/10/30 04:50:22;;;;;;;;;;;11.90;99.90;;;;;;5130040;27;20396;-76
2021/10/30 04:52:49;;;;;;;;;;;11.90;99.90;;;;;;5120753;27;19930;-75
2021/10/30 04:55:16;;;;;;;;;;;11.80;99.90;;;;;;5115607;27;20393;-74
2021/10/30 04:57:42;;;;;;;;;;;11.90;99.90;;;;;;5112322;27;19930;-73
2021/10/30 05:00:10;;;;;;;;;;;11.90;99.90;;;;;;5116042;27;19923;-74
2021/10/30 05:02:36;;;;;;;;;;;11.90;99.90;;;;;;5127302;27;19930;-73
2021/10/30 05:05:05;;;;;;;;;;;11.90;99.90;;;;;;5116639;27;20400;-74
2021/10/30 05:07:31;;;;;;;;;;;11.90;99.90;;;;;;5121779;27;19923;-73
2021/10/30 05:09:58;;;;;;;;;;;12.00;99.90;;;;;;5120497;27;19923;-74
2021/10/30 05:12:25;;;;;;;;;;;11.90;99.90;;;;;;5117938;27;19945;-74
2021/10/30 05:14:51;;;;;;;;;;;11.90;99.90;;;;;;5115693;27;20321;-74
2021/10/30 05:17:18;;;;;;;;;;;11.90;99.90;;;;;;5127492;27;19930;-74
2021/10/30 05:19:44;;;;;;;;;;;11.90;99.90;;;;;;5122766;27;19924;-73
2021/10/30 05:22:12;;;;;;;;;;;11.90;99.90;;;;;;5122688;27;19930;-74
2021/10/30 05:24:39;;;;;;;;;;;11.90;99.90;;;;;;5126213;27;19931;-73
2021/10/30 05:27:06;;;;;;;;;;;11.90;99.90;;;;;;5116463;27;19939;-74
2021/10/30 05:29:32;;;;;;;;;;;12.00;99.90;;;;;;5117035;27;20378;-74
2021/10/30 05:31:59;;;;;;;;;;;11.90;99.90;;;;;;5115634;27;19923;-75
2021/10/30 05:34:26;;;;;;;;;;;12.00;99.90;;;;;;5113764;27;19932;-74
2021/10/30 05:36:53;;;;;;;;;;;12.00;99.90;;;;;;5117980;27;19959;-75
2021/10/30 05:39:23;;;;;;;;;;;12.00;99.90;;;;;;5122176;27;19927;-73
2021/10/30 05:41:50;;;;;;;;;;;12.00;99.90;;;;;;5119262;27;20302;-74
2021/10/30 05:44:16;;;;;;;;;;;12.00;99.90;;;;;;5114093;27;19924;-73
2021/10/30 05:46:43;;;;;;;;;;;12.00;99.90;;;;;;5116743;27;19923;-76
2021/10/30 05:49:11;;;;;;;;;;;12.00;99.90;;;;;;5121621;27;20290;-74
2021/10/30 05:51:38;;;;;;;;;;;12.00;99.90;;;;;;5115648;27;19967;-75
2021/10/30 05:54:05;;;;;;;;;;;12.00;99.90;;;;;;5118604;27;20278;-75
2021/10/30 05:56:33;;;;;;;;;;;12.10;99.90;;;;;;5118072;27;19931;-75
2021/10/30 05:58:59;;;;;;;;;;;12.10;99.90;;;;;;5117172;27;19923;-74
2021/10/30 06:01:28;;;;;;;;;;;12.00;99.90;;;;;;5120842;27;19928;-73
2021/10/30 06:03:55;;;;;;;;;;;12.00;99.90;;;;;;5115957;27;20007;-73
2021/10/30 06:06:21;;;;;;;;;;;12.00;99.90;;;;;;5116810;27;19928;-74
2021/10/30 06:08:48;;;;;;;;;;;12.10;99.90;;;;;;5121125;27;19930;-73
2021/10/30 06:11:14;;;;;;;;;;;12.10;99.90;;;;;;5118775;27;20310;-73
2021/10/30 06:13:42;;;;;;;;;;;12.00;99.90;;;;;;5114910;27;20306;-73
2021/10/30 06:16:09;;;;;;;;;;;12.10;99.90;;;;;;5123969;27;20004;-74
2021/10/30 06:18:36;;;;;;;;;;;12.10;99.90;;;;;;5123116;27;20034;-74
2021/10/30 06:21:02;;;;;;;;;;;12.10;99.90;;;;;;5119392;27;19950;-74
2021/10/30 06:23:29;;;;;;;;;;;12.10;99.90;;;;;;5122040;27;20400;-74
2021/10/30 06:25:56;;;;;;;;;;;12.00;99.90;;;;;;5124185;27;20311;-74
2021/10/30 06:28:22;;;;;;;;;;;12.00;99.90;;;;;;5114948;27;19931;-74
2021/10/30 06:30:50;;;;;;;;;;;12.00;99.90;;;;;;5119364;27;19962;-75
2021/10/30 06:33:17;;;;;;;;;;;12.00;99.90;;;;;;5113918;27;19924;-74
2021/10/30 06:35:44;;;;;;;;;;;12.00;99.90;;;;;;5120970;27;19931;-74
2021/10/30 06:38:12;;;;;;;;;;;11.90;99.90;;;;;;5111292;27;21204;-74
2021/10/30 06:40:39;;;;;;;;;;;12.00;99.90;;;;;;5116026;27;19933;-74
2021/10/30 06:43:05;;;;;;;;;;;12.00;99.90;;;;;;5115346;27;20444;-75
2021/10/30 06:45:32;;;;;;;;;;;12.00;99.90;;;;;;5113423;27;19923;-75
2021/10/30 06:48:00;;;;;;;;;;;12.00;99.90;;;;;;5123223;27;19930;-75
2021/10/30 06:50:30;;;;;;;;;;;12.10;99.90;;;;;;5115649;27;20038;-75
2021/10/30 06:52:56;;;;;;;;;;;12.10;99.90;;;;;;5113786;27;20386;-75
2021/10/30 06:55:23;;;;;;;;;;;12.10;99.90;;;;;;5119462;27;19969;-74
2021/10/30 06:57:50;;;;;;;;;;;12.10;99.90;;;;;;5116809;27;19930;-74
2021/10/30 07:00:17;;;;;;;;;;;12.10;99.90;;;;;;5111836;27;19931;-75
2021/10/30 07:02:47;;;;;;;;;;;12.10;99.90;;;;;;5116950;27;19924;-75
2021/10/30 07:05:15;;;;;;;;;;;12.10;99.90;;;;;;5109820;27;19932;-74
2021/10/30 07:07:42;;;;;;;;;;;12.20;99.90;;;;;;5109533;27;19924;-74
2021/10/30 07:10:09;;;;;;;;;;;12.20;99.90;;;;;;5113485;27;19924;-74
2021/10/30 07:12:36;;;;;;;;;;;12.20;99.90;;;;;;5109845;27;19924;-74
2021/10/30 07:15:03;;;;;;;;;;;12.30;99.90;;;;;;5118808;27;20378;-74
2021/10/30 07:17:30;;;;;;;;;;;12.30;99.90;;;;;;5111966;27;19924;-74
2021/10/30 07:19:57;;;;;;;;;;;12.30;99.90;;;;;;5110561;27;19930;-75
2021/10/30 07:22:25;;;;;;;;;;;12.40;99.90;;;;;;5112179;27;20047;-74
2021/10/30 07:24:52;;;;;;;;;;;12.40;99.90;;;;;;5113130;27;19928;-75
2021/10/30 07:27:18;;;;;;;;;;;12.50;99.90;;;;;;5119850;27;20386;-74
2021/10/30 07:29:46;;;;;;;;;;;12.50;99.90;;;;;;5108753;27;19934;-73
2021/10/30 07:32:15;;;;;;;;;;;12.50;99.90;;;;;;5115790;28;19968;-74
2021/10/30 07:34:48;;;;;;;;;;;12.50;99.90;;;;;;5115549;28;19924;-75
2021/10/30 07:37:15;;;;;;;;;;;12.60;99.90;;;;;;5109213;27;19930;-73
2021/10/30 07:39:43;;;;;;;;;;;12.60;99.90;;;;;;5115426;27;19932;-73
2021/10/30 07:42:10;;;;;;;;;;;12.70;99.90;;;;;;5108104;27;20014;-73
2021/10/30 07:44:38;;;;;;;;;;;12.70;99.90;;;;;;5112744;28;20405;-73
2021/10/30 07:47:05;;;;;;;;;;;12.70;99.90;;;;;;5114657;28;19930;-73
2021/10/30 07:49:32;;;;;;;;;;;12.80;99.90;;;;;;5114747;28;19939;-74
2021/10/30 07:51:59;;;;;;;;;;;12.80;99.90;;;;;;5120351;27;19924;-74
2021/10/30 07:54:25;;;;;;;;;;;12.80;99.90;;;;;;5116615;28;19923;-75
2021/10/30 07:56:54;;;;;;;;;;;12.80;99.90;;;;;;5116030;28;19923;-74
2021/10/30 07:59:21;;;;;;;;;;;12.80;99.90;;;;;;5112768;28;19928;-74
2021/10/30 08:01:50;;;;;;;;;;;12.80;99.90;;;;;;5114164;28;19942;-73
2021/10/30 08:04:17;;;;;;;;;;;12.90;99.90;;;;;;5112240;27;19923;-74
2021/10/30 08:06:43;;;;;;;;;;;12.80;99.90;;;;;;5119618;28;20324;-76
2021/10/30 08:09:10;;;;;;;;;;;12.90;99.90;;;;;;5109166;27;20534;-76
2021/10/30 08:11:37;;;;;;;;;;;12.80;99.90;;;;;;5110712;28;19943;-75
2021/10/30 08:14:06;;;;;;;;;;;12.90;99.90;;;;;;5113036;28;19969;-73
2021/10/30 08:16:33;;;;;;;;;;;12.90;99.90;;;;;;5117880;27;20290;-72
2021/10/30 08:19:00;;;;;;;;;;;12.90;99.90;;;;;;5119775;27;19924;-71
2021/10/30 08:21:27;;;;;;;;;;;12.90;99.90;;;;;;5122655;27;20316;-72
2021/10/30 08:23:54;;;;;;;;;;;12.90;99.90;;;;;;5116460;27;19977;-72
2021/10/30 08:26:20;;;;;;;;;;;13.00;99.90;;;;;;5118560;27;19981;-72
2021/10/30 08:28:47;;;;;;;;;;;12.90;99.90;;;;;;5111731;27;19928;-73
2021/10/30 08:31:15;;;;;;;;;;;12.90;99.90;;;;;;5111429;27;19923;-74
2021/10/30 08:33:42;;;;;;;;;;;12.90;99.90;;;;;;5111599;27;20402;-74
2021/10/30 08:36:09;;;;;;;;;;;12.90;99.90;;;;;;5121897;27;19976;-72
2021/10/30 08:38:35;;;;;;;;;;;12.90;99.90;;;;;;5122727;27;19930;-72
2021/10/30 08:41:03;;;;;;;;;;;12.90;99.90;;;;;;5118401;27;19931;-72
2021/10/30 08:43:30;;;;;;;;;;;12.90;99.90;;;;;;5112215;27;20015;-72
2021/10/30 08:45:57;;;;;;;;;;;13.00;99.90;;;;;;5115460;27;19989;-72
2021/10/30 08:48:26;;;;;;;;;;;13.00;99.90;;;;;;5121331;27;19984;-73
2021/10/30 08:50:54;;;;;;;;;;;13.00;99.90;;;;;;5115163;27;19942;-73
2021/10/30 08:53:20;;;;;;;;;;;13.00;99.90;;;;;;5114692;27;20014;-73
2021/10/30 08:55:51;;;;;;;;;;;13.00;99.90;;;;;;5110857;27;19934;-73
2021/10/30 08:58:18;;;;;;;;;;;13.00;99.90;;;;;;5121967;27;20010;-73
2021/10/30 09:00:46;;;;;;;;;;;13.10;99.90;;;;;;5124868;27;19930;-74
2021/10/30 09:03:13;;;;;;;;;;;13.10;99.90;;;;;;5112257;27;20667;-73
2021/10/30 09:05:43;;;;;;;;;;;13.10;99.90;;;;;;5116295;27;19931;-74
2021/10/30 09:08:12;;;;;;;;;;;13.10;99.90;;;;;;5115725;27;19923;-74
2021/10/30 09:10:40;;;;;;;;;;;13.10;99.90;;;;;;5116507;27;19934;-74
2021/10/30 09:13:09;;;;;;;;;;;13.20;99.90;;;;;;5111708;27;19927;-74
2021/10/30 09:15:37;;;;;;;;;;;13.20;99.90;;;;;;5117401;27;21229;-75
2021/10/30 09:18:04;;;;;;;;;;;13.20;99.90;;;;;;5119862;27;19931;-76
2021/10/30 09:20:32;;;;;;;;;;;13.30;99.90;;;;;;5114676;27;19930;-75
2021/10/30 09:23:00;;;;;;;;;;;13.30;99.90;;;;;;5113085;27;20309;-75
2021/10/30 09:25:27;;;;;;;;;;;13.30;99.90;;;;;;5116224;27;19931;-75
2021/10/30 09:27:55;;;;;;;;;;;13.30;99.90;;;;;;5112821;27;19928;-74
2021/10/30 09:30:24;;;;;;;;;;;13.30;99.90;;;;;;5114144;27;19931;-74
2021/10/30 09:32:52;;;;;;;;;;;13.40;99.90;;;;;;5113914;27;19931;-76
2021/10/30 09:35:22;;;;;;;;;;;13.40;99.90;;;;;;5115122;27;20449;-73
2021/10/30 09:37:49;;;;;;;;;;;13.40;99.90;;;;;;5111002;27;19924;-77
2021/10/30 09:40:19;;;;;;;;;;;13.40;99.90;;;;;;5108786;27;20409;-73
2021/10/30 09:42:47;;;;;;;;;;;13.40;99.90;;;;;;5111811;27;19927;-73
2021/10/30 09:45:15;;;;;;;;;;;13.40;99.90;;;;;;5108530;27;19976;-74
2021/10/30 09:47:43;;;;;;;;;;;13.40;99.90;;;;;;5118168;27;19984;-74
2021/10/30 09:50:22;;;;;;;;;;;13.40;99.90;;;;;;5112550;27;19948;-76
2021/10/30 09:52:49;;;;;;;;;;;13.50;99.90;;;;;;5114709;27;20305;-74
2021/10/30 09:55:24;;;;;;;;;;;13.60;99.90;;;;;;5116799;27;19932;-74
2021/10/30 09:57:58;;;;;;;;;;;13.60;99.90;;;;;;5120156;27;19924;-73
2021/10/30 10:00:25;;;;;;;;;;;13.80;99.90;;;;;;5114448;27;19923;-73
2021/10/30 10:02:52;;;;;;;;;;;13.80;99.90;;;;;;5120188;27;19988;-73
2021/10/30 10:05:19;;;;;;;;;;;13.90;99.90;;;;;;5110521;27;19924;-73
2021/10/30 10:07:48;;;;;;;;;;;13.90;99.90;;;;;;5113365;27;19927;-74
2021/10/30 10:10:15;;;;;;;;;;;13.90;99.90;;;;;;5113207;27;20003;-75
2021/10/30 10:12:44;;;;;;;;;;;13.90;99.90;;;;;;5112005;27;20291;-76
2021/10/30 10:15:13;;;;;;;;;;;13.90;99.90;;;;;;5110721;27;19931;-74
2021/10/30 10:17:39;;;;;;;;;;;13.90;99.90;;;;;;5109248;27;20028;-76
2021/10/30 10:20:08;;;;;;;;;;;13.90;99.90;;;;;;5112157;27;19931;-74
2021/10/30 10:22:35;;;;;;;;;;;13.80;99.90;;;;;;5111992;27;19927;-78
2021/10/30 10:25:18;;;;;;;;;;;13.80;99.90;;;;;;5120617;27;20297;-72
2021/10/30 10:27:46;;;;;;;;;;;13.80;99.90;;;;;;5116204;27;19931;-75
2021/10/30 10:30:13;;;;;;;;;;;13.80;99.90;;;;;;5118463;27;19965;-77
2021/10/30 10:32:40;;;;;;;;;;;13.90;99.90;;;;;;5117001;27;20044;-75
2021/10/30 10:35:07;;;;;;;;;;;14.00;99.90;;;;;;5116477;27;19923;-75
2021/10/30 10:37:47;;;;;;;;;;;14.10;99.90;;;;;;5114522;27;19930;-73
2021/10/30 10:40:28;;;;;;;;;;;14.20;99.90;;;;;;5118248;27;19928;-75
2021/10/30 10:42:56;;;;;;;;;;;14.30;99.90;;;;;;5115401;27;20032;-76
2021/10/30 10:45:23;;;;;;;;;;;14.40;99.90;;;;;;5120111;27;19934;-75
2021/10/30 10:47:58;;;;;;;;;;;14.50;99.90;;;;;;5115546;27;19930;-75
2021/10/30 10:50:31;;;;;;;;;;;14.60;99.90;;;;;;5112210;27;19938;-72
2021/10/30 10:53:15;;;;;;;;;;;14.70;99.90;;;;;;5122220;27;20007;-74
2021/10/30 10:55:57;;;;;;;;;;;15.00;99.90;;;;;;5115120;27;20398;-74
2021/10/30 10:58:25;;;;;;;;;;;15.10;99.90;;;;;;5115287;27;20409;-78
2021/10/30 11:01:02;;;;;;;;;;;15.20;99.90;;;;;;5119420;27;20623;-77
2021/10/30 11:03:29;;;;;;;;;;;15.00;99.90;;;;;;5113013;27;19930;-77
2021/10/30 11:05:57;;;;;;;;;;;15.00;99.90;;;;;;5115649;27;20298;-77
2021/10/30 11:08:30;;;;;;;;;;;15.00;99.90;;;;;;5112088;27;20397;-75
2021/10/30 11:11:10;;;;;;;;;;;15.00;99.90;;;;;;5118231;27;19934;-74
2021/10/30 11:13:45;;;;;;;;;;;15.00;99.90;;;;;;5114866;27;20393;-76
2021/10/30 11:16:11;;;;;;;;;;;15.00;99.90;;;;;;5117511;27;19931;-76
2021/10/30 11:18:48;;;;;;;;;;;14.90;99.90;;;;;;5116416;27;19923;-76
2021/10/30 11:21:17;;;;;;;;;;;14.90;99.90;;;;;;5115786;27;20493;-76
2021/10/30 11:23:44;;;;;;;;;;;14.90;99.90;;;;;;5116941;27;19938;-74
2021/10/30 11:26:12;;;;;;;;;;;14.90;99.90;;;;;;5117550;27;19927;-76
2021/10/30 11:28:40;;;;;;;;;;;15.10;99.90;;;;;;5112042;27;19931;-76
2021/10/30 11:31:14;;;;;;;;;;;15.00;99.90;;;;;;5115431;28;20068;-76
2021/10/30 11:33:40;;;;;;;;;;;15.10;99.90;;;;;;5114145;28;19942;-79
2021/10/30 11:36:08;;;;;;;;;;;15.10;99.90;;;;;;5119025;28;19931;-76
2021/10/30 11:38:35;;;;;;;;;;;15.20;99.90;;;;;;5113216;28;19934;-74
2021/10/30 11:41:03;;;;;;;;;;;15.20;99.90;;;;;;5118840;27;19946;-74
2021/10/30 11:43:31;;;;;;;;;;;15.20;99.90;;;;;;5117888;28;19930;-77
2021/10/30 11:46:00;;;;;;;;;;;15.20;99.90;;;;;;5123896;28;19923;-74
2021/10/30 11:48:36;;;;;;;;;;;15.10;99.90;;;;;;5115364;28;19927;-74
2021/10/30 11:51:03;;;;;;;;;;;15.00;99.90;;;;;;5116322;27;19942;-74
2021/10/30 11:53:30;;;;;;;;;;;14.90;99.90;;;;;;5121737;27;19943;-75
2021/10/30 11:55:58;;;;;;;;;;;14.90;99.90;;;;;;5122813;27;19931;-78
2021/10/30 11:58:35;;;;;;;;;;;14.90;99.90;;;;;;5121826;27;20019;-75
2021/10/30 12:03:58;;;;;;;;;;;15.10;99.90;;;;;;5104080;27;20383;-73
2021/10/30 12:06:25;;;;;;;;;;;15.20;99.90;;;;;;5100253;28;20009;-73
2021/10/30 12:08:56;;;;;;;;;;;15.10;99.90;;;;;;5096388;28;20026;-73
2021/10/30 12:11:22;;;;;;;;;;;15.10;99.90;;;;;;5102408;28;19924;-73
2021/10/30 12:13:50;;;;;;;;;;;15.00;99.90;;;;;;5103133;28;20259;-73
2021/10/30 12:16:16;;;;;;;;;;;15.00;99.90;;;;;;5101243;28;20030;-75
2021/10/30 12:18:43;;;;;;;;;;;15.00;99.90;;;;;;5102818;28;19931;-74
2021/10/30 12:21:12;;;;;;;;;;;15.10;99.90;;;;;;5101382;28;20291;-76
2021/10/30 12:23:52;;;;;;;;;;;15.10;99.90;;;;;;5098564;28;20302;-74
2021/10/30 12:26:19;;;;;;;;;;;15.10;99.90;;;;;;5100221;28;19932;-74
2021/10/30 12:28:46;;;;;;;;;;;15.10;99.90;;;;;;5101325;28;19928;-75
2021/10/30 12:31:13;;;;;;;;;;;15.10;99.90;;;;;;5101165;28;19954;-76
2021/10/30 12:33:43;;;;;;;;;;;15.30;99.90;;;;;;5101797;28;19924;-75
2021/10/30 12:36:10;;;;;;;;;;;15.20;99.90;;;;;;5100596;28;19924;-74
2021/10/30 12:38:40;;;;;;;;;;;15.20;99.90;;;;;;5100470;28;19978;-75
2021/10/30 12:41:17;;;;;;;;;;;15.20;99.90;;;;;;5102449;28;19924;-72
2021/10/30 12:43:48;;;;;;;;;;;15.20;99.90;;;;;;5099981;28;20411;-73
2021/10/30 12:46:15;;;;;;;;;;;15.30;99.90;;;;;;5100062;28;20387;-75
2021/10/30 12:48:42;;;;;;;;;;;15.30;99.90;;;;;;5096140;28;19924;-74
2021/10/30 12:51:11;;;;;;;;;;;15.10;99.90;;;;;;5097697;28;20383;-74
2021/10/30 12:53:40;;;;;;;;;;;15.00;99.90;;;;;;5102671;28;19947;-76
2021/10/30 12:56:07;;;;;;;;;;;15.00;99.90;;;;;;5100843;28;19975;-74
2021/10/30 12:58:35;;;;;;;;;;;15.00;99.90;;;;;;5097057;28;19932;-74
2021/10/30 13:01:02;;;;;;;;;;;15.00;99.90;;;;;;5096118;28;19930;-74
2021/10/30 13:03:30;;;;;;;;;;;15.00;99.90;;;;;;5114742;27;19938;-72
2021/10/30 13:05:57;;;;;;;;;;;14.90;99.90;;;;;;5116193;27;20024;-73
2021/10/30 13:08:24;;;;;;;;;;;14.90;99.90;;;;;;5119163;27;19931;-72
2021/10/30 13:10:52;;;;;;;;;;;14.90;99.90;;;;;;5115443;27;19938;-73
2021/10/30 13:13:20;;;;;;;;;;;14.90;99.90;;;;;;5116349;27;19927;-73
2021/10/30 13:15:47;;;;;;;;;;;14.80;99.90;;;;;;5104337;27;20398;-73
2021/10/30 13:18:13;;;;;;;;;;;14.70;99.90;;;;;;5100627;27;20418;-72
2021/10/30 13:20:40;;;;;;;;;;;14.70;99.90;;;;;;5099555;27;19930;-74
2021/10/30 13:23:07;;;;;;;;;;;14.70;99.90;;;;;;5106629;28;19928;-75
2021/10/30 13:25:34;;;;;;;;;;;14.70;99.90;;;;;;5104661;27;19931;-73
2021/10/30 13:28:02;;;;;;;;;;;14.70;99.90;;;;;;5101615;27;19931;-74
2021/10/30 13:30:28;;;;;;;;;;;14.70;99.90;;;;;;5102034;27;19932;-75
2021/10/30 13:32:55;;;;;;;;;;;14.60;99.90;;;;;;5109390;27;20035;-73
2021/10/30 13:35:22;;;;;;;;;;;14.60;99.90;;;;;;5108269;27;20408;-72
2021/10/30 13:37:49;;;;;;;;;;;14.60;99.90;;;;;;5106781;27;19931;-73
2021/10/30 13:40:15;;;;;;;;;;;14.60;99.90;;;;;;5109477;27;19924;-72
2021/10/30 13:42:43;;;;;;;;;;;14.70;99.90;;;;;;5102932;27;19968;-75
2021/10/30 13:45:11;;;;;;;;;;;14.70;99.90;;;;;;5107282;27;20286;-75
2021/10/30 13:47:38;;;;;;;;;;;14.70;99.90;;;;;;5106974;27;19941;-75
2021/10/30 13:50:05;;;;;;;;;;;14.70;99.90;;;;;;5108286;27;19924;-75
2021/10/30 13:52:32;;;;;;;;;;;14.80;99.90;;;;;;5106887;27;20012;-72
2021/10/30 13:54:59;;;;;;;;;;;14.80;99.90;;;;;;5107398;27;19924;-74
2021/10/30 13:57:26;;;;;;;;;;;14.80;99.90;;;;;;5108054;27;19939;-75
2021/10/30 13:59:53;;;;;;;;;;;14.70;99.90;;;;;;5107115;27;20011;-74
2021/10/30 14:02:21;;;;;;;;;;;14.70;99.90;;;;;;5104083;27;19924;-75
2021/10/30 14:04:47;;;;;;;;;;;14.60;99.90;;;;;;5107276;27;19935;-75
2021/10/30 14:07:14;;;;;;;;;;;14.60;99.90;;;;;;5108699;27;19924;-75
2021/10/30 14:09:41;;;;;;;;;;;14.60;99.90;;;;;;5104511;27;19930;-74
2021/10/30 14:12:08;;;;;;;;;;;14.50;99.90;;;;;;5105742;27;19938;-75
2021/10/30 14:14:34;;;;;;;;;;;14.40;99.90;;;;;;5102625;27;19951;-74
2021/10/30 14:17:01;;;;;;;;;;;14.40;99.90;;;;;;5099967;27;20401;-74
2021/10/30 14:19:29;;;;;;;;;;;14.30;99.90;;;;;;5102629;27;19947;-73
2021/10/30 14:21:56;;;;;;;;;;;14.30;99.90;;;;;;5102721;27;19968;-73